FusionCharts will load here!
TimeCapacitySMPSum
Monday 00:00   0.97 6.583 7.554
Monday 00:30   0.82 6.531 7.352
Monday 01:00   0.65 4.548 5.198
Monday 01:30   0.52 4.069 4.590
Monday 02:00   0.42 4.589 5.008
Monday 02:30   0.32 4.589 4.910
Monday 03:00   0.23 4.589 4.819
Monday 03:30   0.17 4.589 4.757
Monday 04:00   0.13 4.589 4.717
Monday 04:30   0.07 4.589 4.663
Monday 05:00   0.03 4.589 4.614
Monday 05:30   0.01 4.654 4.662
Monday 06:00   0.01 4.078 4.091
Monday 06:30   0.03 4.578 4.613
Monday 07:00   0.07 8.243 8.312
Monday 07:30   0.15 8.534 8.680
Monday 08:00   0.15 8.501 8.651
Monday 08:30   0.24 8.501 8.736
Monday 09:00   0.43 8.253 8.684
Monday 09:30   0.68 8.221 8.904
Monday 10:00   0.88 8.273 9.157
Monday 10:30   1.06 8.209 9.269
Monday 11:00   1.19 8.251 9.444
Monday 11:30   1.31 8.251 9.565
Monday 12:00   1.45 4.236 5.688
Monday 12:30   1.57 4.571 6.140
Monday 13:00   1.61 4.543 6.149
Monday 13:30   1.51 4.170 5.680
Monday 14:00   1.41 4.078 5.489
Monday 14:30   1.35 4.065 5.410
Monday 15:00   1.28 4.065 5.343
Monday 15:30   1.23 4.065 5.295
Monday 16:00   1.24 3.910 5.149
Monday 16:30   1.31 4.100 5.410
Monday 17:00   1.48 4.236 5.713
Monday 17:30   1.75 8.253 10.008
Monday 18:00   2.07 4.236 6.311
Monday 18:30   2.13 4.236 6.364
Monday 19:00   2.08 4.236 6.318
Monday 19:30   1.97 4.236 6.208
Monday 20:00   1.85 4.236 6.088
Monday 20:30   1.74 4.100 5.843
Monday 21:00   1.63 4.236 5.870
Monday 21:30   1.51 4.152 5.657
Monday 22:00   1.27 4.078 5.350
Monday 22:30   1.07 4.078 5.145
Monday 23:00   0.99 8.331 9.321
Monday 23:30   0.98 8.341 9.317
Tuesday 00:00   0.81 4.929 5.735
Tuesday 00:30   0.66 4.236 4.896
Tuesday 01:00   0.51 4.079 4.584
Tuesday 01:30   0.39 4.065 4.457
Tuesday 02:00   0.31 4.065 4.378
Tuesday 02:30   0.24 3.910 4.150
Tuesday 03:00   0.19 3.910 4.101
Tuesday 03:30   0.16 3.910 4.069
Tuesday 04:00   0.13 4.065 4.198
Tuesday 04:30   0.10 4.065 4.169
Tuesday 05:00   0.09 4.065 4.159
Tuesday 05:30   0.14 4.079 4.221
Tuesday 06:00   0.27 4.236 4.509
Tuesday 06:30   0.49 4.286 4.780
Tuesday 07:00   0.90 5.233 6.136
Tuesday 07:30   1.42 6.052 7.471
Tuesday 08:00   1.73 5.153 6.883
Tuesday 08:30   1.80 4.995 6.800
Tuesday 09:00   1.91 4.262 6.170
Tuesday 09:30   2.00 4.236 6.233
Tuesday 10:00   2.12 4.262 6.386
Tuesday 10:30   2.15 4.262 6.414
Tuesday 11:00   2.18 4.286 6.470
Tuesday 11:30   2.20 4.262 6.466
Tuesday 12:00   2.23 4.236 6.463
Tuesday 12:30   2.25 4.262 6.513
Tuesday 13:00   2.22 4.236 6.453
Tuesday 13:30   2.08 4.236 6.318
Tuesday 14:00   2.06 4.236 6.297
Tuesday 14:30   2.08 4.236 6.313
Tuesday 15:00   2.08 4.236 6.315
Tuesday 15:30   2.08 4.236 6.321
Tuesday 16:00   2.07 4.236 6.302
Tuesday 16:30   2.22 4.236 6.452
Tuesday 17:00   2.35 4.290 6.642
Tuesday 17:30   2.65 4.458 7.107
Tuesday 18:00   2.79 11.998 14.788
Tuesday 18:30   2.72 11.998 14.721
Tuesday 19:00   2.71 11.998 14.708
Tuesday 19:30   2.67 9.772 12.446
Tuesday 20:00   2.49 5.233 7.725
Tuesday 20:30   2.32 4.286 6.610
Tuesday 21:00   2.22 4.236 6.455
Tuesday 21:30   2.04 4.236 6.271
Tuesday 22:00   1.75 4.236 5.987
Tuesday 22:30   1.48 4.266 5.749
Tuesday 23:00   1.34 4.797 6.139
Tuesday 23:30   1.28 4.743 6.024
Wednesday 00:00   1.04 4.804 5.842
Wednesday 00:30   0.86 4.867 5.722
Wednesday 01:00   0.68 4.866 5.551
Wednesday 01:30   0.57 4.829 5.400
Wednesday 02:00   0.48 4.685 5.169
Wednesday 02:30   0.40 4.639 5.044
Wednesday 03:00   0.35 4.451 4.799
Wednesday 03:30   0.32 4.374 4.694
Wednesday 04:00   0.30 4.374 4.673
Wednesday 04:30   0.27 4.351 4.622
Wednesday 05:00   0.27 4.449 4.717
Wednesday 05:30   0.30 4.675 4.974
Wednesday 06:00   0.41 5.000 5.411
Wednesday 06:30   0.65 5.000 5.646
Wednesday 07:00   1.05 5.000 6.047
Wednesday 07:30   1.56 5.000 6.555
Wednesday 08:00   1.85 5.000 6.849
Wednesday 08:30   1.89 5.000 6.886
Wednesday 09:00   1.98 5.000 6.980
Wednesday 09:30   2.12 5.000 7.117
Wednesday 10:00   2.15 5.000 7.150
Wednesday 10:30   2.17 5.000 7.171
Wednesday 11:00   2.18 5.000 7.180
Wednesday 11:30   2.19 5.000 7.188
Wednesday 12:00   2.20 5.000 7.197
Wednesday 12:30   2.22 5.000 7.223
Wednesday 13:00   2.18 5.000 7.184
Wednesday 13:30   2.08 5.000 7.076
Wednesday 14:00   2.06 5.000 7.062
Wednesday 14:30   2.10 5.000 7.096
Wednesday 15:00   2.10 5.000 7.098
Wednesday 15:30   2.13 5.000 7.125
Wednesday 16:00   2.10 5.000 7.102
Wednesday 16:30   2.26 5.000 7.259
Wednesday 17:00   2.41 5.000 7.407
Wednesday 17:30   2.70 5.000 7.704
Wednesday 18:00   2.86 5.000 7.860
Wednesday 18:30   2.78 5.000 7.779
Wednesday 19:00   2.74 5.000 7.735
Wednesday 19:30   2.72 5.000 7.718
Wednesday 20:00   2.55 5.000 7.547
Wednesday 20:30   2.42 5.000 7.419
Wednesday 21:00   2.28 5.000 7.283
Wednesday 21:30   2.08 5.000 7.077
Wednesday 22:00   1.79 5.000 6.788
Wednesday 22:30   1.51 5.000 6.514
Wednesday 23:00   1.37 5.000 6.375
Wednesday 23:30   1.30 5.000 6.303

Get the Power Market Experts on your side.

  • Review current contracts to make sure your business is tied into the lowest cost connection level agreement.
  • Provide your facilities team with access to live power readings so that load can be better managed.
  • Make comparisons between tracker and fixed electricity tariffs more transparent, so better procurement decisions are made.
  • Provide daily/hour gas price updates on the forward markets, so that gas & electricity prices can be hedged forward at competitive rates.
  • Schedule load to use lowest priced times and switch off non-critical load during high cost periods.
  • Allow a (non-critical) portion of the electricity profile to be switched off or an on-site generator started remotely by the National Grid (via an aggegrator known as a Demand Side Unit) and receive capacity payments in compensation. This is also applicable to sites with a Diesel Generator.
  • Provide an independent review and paybacks of energy saving capital projects, including wind turbines, led lighting retrofits and solar photovoltaic panels.
  • For CHP (Combined Heat & Power) owners, access market information to optimise run hours so that power is imported (purchased) when the import cost is lower than the running costs of the generator, and if there is an export potential, then better returns can be invariably be obtained using a time of day tariff model.